createdAt,value
2023-01-13T00:00:49.565Z,51.185829
2023-01-13T00:01:49.590Z,51.185837
2023-01-13T00:02:49.563Z,51.185856
2023-01-13T00:03:49.583Z,51.185848
2023-01-13T00:04:49.642Z,51.185814
2023-01-13T00:05:49.545Z,51.185810
2023-01-13T00:06:49.568Z,51.185753
2023-01-13T00:07:49.551Z,51.185783
2023-01-13T00:08:49.634Z,51.185776
2023-01-13T00:09:49.509Z,51.185863
2023-01-13T00:10:49.514Z,51.185837
2023-01-13T00:11:49.493Z,51.185833
2023-01-13T00:12:49.499Z,51.185806
2023-01-13T00:13:49.499Z,51.185802
2023-01-13T00:14:49.548Z,51.185818
2023-01-13T00:15:49.478Z,51.185818
2023-01-13T00:16:49.466Z,51.185829
2023-01-13T00:17:49.846Z,51.185825
2023-01-13T00:18:49.481Z,51.185806
2023-01-13T00:19:49.534Z,51.185745
2023-01-13T00:20:49.434Z,51.185745
2023-01-13T00:21:49.426Z,51.185787
2023-01-13T00:22:49.425Z,51.185822
2023-01-13T00:23:49.436Z,51.185810
2023-01-13T00:24:49.422Z,51.185760
2023-01-13T00:25:49.477Z,51.185776
2023-01-13T00:26:49.415Z,51.185768
2023-01-13T00:27:49.395Z,51.185745
2023-01-13T00:28:49.411Z,51.185829
2023-01-13T00:29:49.376Z,51.185787
2023-01-13T00:30:49.449Z,51.185871
2023-01-13T00:31:49.418Z,51.185875
2023-01-13T00:32:49.355Z,51.185852
2023-01-13T00:33:49.444Z,51.185768
2023-01-13T00:34:49.378Z,51.185810
2023-01-13T00:35:49.393Z,51.185829
2023-01-13T00:36:49.340Z,51.185822
2023-01-13T00:37:49.328Z,51.185768
2023-01-13T00:38:49.684Z,51.185726
2023-01-13T00:39:49.346Z,51.185734
2023-01-13T00:40:49.322Z,51.185711
2023-01-13T00:41:49.344Z,51.185757
2023-01-13T00:42:49.323Z,51.185806
2023-01-13T00:43:49.294Z,51.185787
2023-01-13T00:44:49.296Z,51.185764
2023-01-13T00:45:49.317Z,51.185780
2023-01-13T00:46:49.316Z,51.185760
2023-01-13T00:47:49.265Z,51.185768
2023-01-13T00:48:49.276Z,51.185848
2023-01-13T00:49:49.243Z,51.185814
2023-01-13T00:50:49.276Z,51.185806
2023-01-13T00:51:49.257Z,51.185787
2023-01-13T00:52:49.239Z,51.185757
2023-01-13T00:53:49.281Z,51.185780
2023-01-13T00:54:49.235Z,51.185730
2023-01-13T00:55:49.221Z,51.185783
2023-01-13T00:56:49.232Z,51.185825
2023-01-13T00:57:49.214Z,51.185802
2023-01-13T00:58:49.179Z,51.185760
2023-01-13T00:59:49.685Z,51.185760
2023-01-13T01:00:49.249Z,51.185734
2023-01-13T01:01:49.493Z,51.185818
2023-01-13T01:02:49.230Z,51.185829
2023-01-13T01:03:49.171Z,51.185837
2023-01-13T01:04:49.183Z,51.185791
2023-01-13T01:05:49.154Z,51.185822
2023-01-13T01:06:49.147Z,51.185802
2023-01-13T01:07:49.139Z,51.185734
2023-01-13T01:08:49.198Z,51.185776
2023-01-13T01:09:49.110Z,51.185829
2023-01-13T01:10:49.122Z,51.185844
2023-01-13T01:11:49.122Z,51.185818
2023-01-13T01:12:49.097Z,51.185791
2023-01-13T01:13:49.849Z,51.185860
2023-01-13T01:14:49.232Z,51.185802
2023-01-13T01:15:49.196Z,51.185795
2023-01-13T01:16:49.068Z,51.185791
2023-01-13T01:17:49.130Z,51.185787
2023-01-13T01:18:49.092Z,51.185780
2023-01-13T01:19:49.088Z,51.185768
2023-01-13T01:20:49.090Z,51.185760
2023-01-13T01:21:49.041Z,51.185818
2023-01-13T01:22:49.051Z,51.185867
2023-01-13T01:23:49.096Z,51.185730
2023-01-13T01:24:49.028Z,51.185802
2023-01-13T01:25:49.013Z,51.185822
2023-01-13T01:26:48.994Z,51.185760
2023-01-13T01:27:49.042Z,51.185745
2023-01-13T01:28:49.008Z,51.185825
2023-01-13T01:29:49.024Z,51.185665
2023-01-13T01:30:48.984Z,51.185768
2023-01-13T01:31:48.987Z,51.185760
2023-01-13T01:32:48.975Z,51.185810
2023-01-13T01:33:48.961Z,51.185772
2023-01-13T01:34:48.941Z,51.185844
2023-01-13T01:35:48.954Z,51.185863
2023-01-13T01:36:48.968Z,51.185772
2023-01-13T01:37:48.931Z,51.185806
2023-01-13T01:38:48.977Z,51.185764
2023-01-13T01:39:48.940Z,51.185745
2023-01-13T01:40:48.935Z,51.185783
2023-01-13T01:41:48.914Z,51.185802
2023-01-13T01:42:48.892Z,51.185760
2023-01-13T01:43:48.913Z,51.185787
2023-01-13T01:44:50.661Z,51.185719
2023-01-13T01:45:48.891Z,51.185703
2023-01-13T01:46:48.920Z,51.185799
2023-01-13T01:47:48.872Z,51.185787
2023-01-13T01:48:48.859Z,51.185841
2023-01-13T01:49:48.925Z,51.185795
2023-01-13T01:50:48.866Z,51.185760
2023-01-13T01:51:48.864Z,51.185780
2023-01-13T01:52:48.862Z,51.185837
2023-01-13T01:53:48.831Z,51.185810
2023-01-13T01:54:48.829Z,51.185806
2023-01-13T01:55:48.818Z,51.185860
2023-01-13T01:56:48.831Z,51.185829
2023-01-13T01:57:48.815Z,51.185844
2023-01-13T01:58:48.800Z,51.185822
2023-01-13T01:59:48.885Z,51.185844
2023-01-13T02:00:48.832Z,51.185818
2023-01-13T02:01:48.936Z,51.185722
2023-01-13T02:02:48.901Z,51.185780
2023-01-13T02:03:48.756Z,51.185799
2023-01-13T02:04:48.754Z,51.185757
2023-01-13T02:05:48.986Z,51.185814
2023-01-13T02:06:48.759Z,51.185783
2023-01-13T02:07:48.743Z,51.185787
2023-01-13T02:08:48.745Z,51.185814
2023-01-13T02:09:48.758Z,51.185825
2023-01-13T02:10:48.708Z,51.185806
2023-01-13T02:11:48.701Z,51.185825
2023-01-13T02:12:48.779Z,51.185814
2023-01-13T02:13:48.687Z,51.185810
2023-01-13T02:14:48.699Z,51.185825
2023-01-13T02:15:48.710Z,51.185848
2023-01-13T02:16:48.665Z,51.185829
2023-01-13T02:17:48.741Z,51.185928
2023-01-13T02:18:48.669Z,51.185883
2023-01-13T02:19:48.644Z,51.185829
2023-01-13T02:20:48.636Z,51.185829
2023-01-13T02:21:48.669Z,51.185844
2023-01-13T02:22:48.797Z,51.185841
2023-01-13T02:23:48.623Z,51.185833
2023-01-13T02:24:48.618Z,51.185837
2023-01-13T02:25:48.622Z,51.185848
2023-01-13T02:26:48.586Z,51.185848
2023-01-13T02:27:48.583Z,51.185818
2023-01-13T02:28:48.579Z,51.185852
2023-01-13T02:29:48.594Z,51.185802
2023-01-13T02:30:48.656Z,51.185776
2023-01-13T02:31:48.675Z,51.185806
2023-01-13T02:32:48.561Z,51.185799
2023-01-13T02:33:48.537Z,51.185791
2023-01-13T02:34:48.557Z,51.185783
2023-01-13T02:35:48.562Z,51.185795
2023-01-13T02:36:48.551Z,51.185810
2023-01-13T02:37:48.535Z,51.185795
2023-01-13T02:38:48.518Z,51.185806
2023-01-13T02:39:48.525Z,51.185902
2023-01-13T02:40:48.505Z,51.185848
2023-01-13T02:41:48.497Z,51.185810
2023-01-13T02:42:48.504Z,51.185825
2023-01-13T02:43:48.476Z,51.185833
2023-01-13T02:44:48.476Z,51.185844
2023-01-13T02:45:48.527Z,51.185848
2023-01-13T02:46:48.459Z,51.185810
2023-01-13T02:47:48.508Z,51.185787
2023-01-13T02:48:48.456Z,51.185848
2023-01-13T02:49:48.439Z,51.185799
2023-01-13T02:50:48.429Z,51.185844
2023-01-13T02:51:48.421Z,51.185818
2023-01-13T02:52:48.421Z,51.185791
2023-01-13T02:53:48.430Z,51.185802
2023-01-13T02:54:48.410Z,51.185802
2023-01-13T02:55:48.604Z,51.185776
2023-01-13T02:56:48.382Z,51.185810
2023-01-13T02:57:48.389Z,51.185791
2023-01-13T02:58:48.374Z,51.185802
2023-01-13T02:59:48.393Z,51.185780
2023-01-13T03:00:48.468Z,51.185814
2023-01-13T03:01:48.503Z,51.185814
2023-01-13T03:02:48.478Z,51.185791
2023-01-13T03:03:48.369Z,51.185814
2023-01-13T03:04:48.370Z,51.185825
2023-01-13T03:05:48.349Z,51.185833
2023-01-13T03:06:48.605Z,51.185837
2023-01-13T03:07:48.347Z,51.185799
2023-01-13T03:08:48.335Z,51.185818
2023-01-13T03:09:48.318Z,51.185825
2023-01-13T03:10:48.306Z,51.185856
2023-01-13T03:11:48.283Z,51.185810
2023-01-13T03:12:48.328Z,51.185802
2023-01-13T03:13:48.278Z,51.185818
2023-01-13T03:14:48.294Z,51.185802
2023-01-13T03:15:48.290Z,51.185799
2023-01-13T03:16:48.314Z,51.185799
2023-01-13T03:17:48.259Z,51.185852
2023-01-13T03:18:48.254Z,51.185844
2023-01-13T03:19:48.333Z,51.185860
2023-01-13T03:20:48.262Z,51.185833
2023-01-13T03:21:48.234Z,51.185898
2023-01-13T03:22:48.298Z,51.185921
2023-01-13T03:23:48.247Z,51.185837
2023-01-13T03:24:48.221Z,51.185860
2023-01-13T03:25:48.202Z,51.185806
2023-01-13T03:26:48.228Z,51.185860
2023-01-13T03:27:48.185Z,51.185802
2023-01-13T03:28:48.185Z,51.185795
2023-01-13T03:29:48.193Z,51.185791
2023-01-13T03:30:48.265Z,51.185776
2023-01-13T03:31:48.178Z,51.185863
2023-01-13T03:32:48.149Z,51.185860
2023-01-13T03:33:48.126Z,51.185783
2023-01-13T03:34:48.189Z,51.185799
2023-01-13T03:35:48.167Z,51.185917
2023-01-13T03:36:48.114Z,51.185806
2023-01-13T03:37:48.139Z,51.185806
2023-01-13T03:38:48.105Z,51.185806
2023-01-13T03:39:48.084Z,51.185783
2023-01-13T03:40:48.167Z,51.185810
2023-01-13T03:41:48.084Z,51.185818
2023-01-13T03:42:48.088Z,51.185783
2023-01-13T03:43:48.078Z,51.185818
2023-01-13T03:44:48.846Z,51.185810
2023-01-13T03:45:48.084Z,51.185833
2023-01-13T03:46:48.082Z,51.185802
2023-01-13T03:47:48.407Z,51.185825
2023-01-13T03:48:48.057Z,51.185852
2023-01-13T03:49:48.045Z,51.185829
2023-01-13T03:50:48.022Z,51.185776
2023-01-13T03:51:48.052Z,51.185844
2023-01-13T03:52:48.020Z,51.185841
2023-01-13T03:53:48.016Z,51.185799
2023-01-13T03:54:48.010Z,51.185837
2023-01-13T03:55:47.990Z,51.185871
2023-01-13T03:56:48.847Z,51.185852
2023-01-13T03:57:48.035Z,51.185863
2023-01-13T03:58:47.965Z,51.185802
2023-01-13T03:59:47.951Z,51.185879
2023-01-13T04:00:47.979Z,51.185890
2023-01-13T04:01:48.133Z,51.185818
2023-01-13T04:02:48.051Z,51.185833
2023-01-13T04:03:48.039Z,51.185818
2023-01-13T04:04:47.937Z,51.185799
2023-01-13T04:05:47.958Z,51.185856
2023-01-13T04:06:47.926Z,51.185890
2023-01-13T04:07:47.930Z,51.185837
2023-01-13T04:08:47.905Z,51.185810
2023-01-13T04:09:47.915Z,51.185837
2023-01-13T04:10:47.899Z,51.185814
2023-01-13T04:11:47.889Z,51.185795
2023-01-13T04:12:47.882Z,51.185776
2023-01-13T04:13:47.852Z,51.185791
2023-01-13T04:14:47.875Z,51.185894
2023-01-13T04:15:47.946Z,51.185860
2023-01-13T04:16:47.889Z,51.185928
2023-01-13T04:17:47.914Z,51.185947
2023-01-13T04:18:47.841Z,51.185871
2023-01-13T04:19:47.844Z,51.185822
2023-01-13T04:20:47.930Z,51.185719
2023-01-13T04:21:47.820Z,51.185719
2023-01-13T04:22:47.794Z,51.185753
2023-01-13T04:23:47.838Z,51.185776
2023-01-13T04:24:47.844Z,51.185822
2023-01-13T04:25:47.810Z,51.185844
2023-01-13T04:26:47.784Z,51.185852
2023-01-13T04:27:47.817Z,51.185913
2023-01-13T04:28:47.766Z,51.185844
2023-01-13T04:29:47.775Z,51.185818
2023-01-13T04:30:47.892Z,51.185764
2023-01-13T04:31:47.751Z,51.185829
2023-01-13T04:32:47.747Z,51.185867
2023-01-13T04:33:47.731Z,51.185951
2023-01-13T04:34:47.745Z,51.185780
2023-01-13T04:35:47.727Z,51.185764
2023-01-13T04:36:47.699Z,51.185776
2023-01-13T04:37:47.704Z,51.185829
2023-01-13T04:38:47.694Z,51.185806
2023-01-13T04:39:47.729Z,51.185787
2023-01-13T04:40:47.697Z,51.185837
2023-01-13T04:41:47.691Z,51.185844
2023-01-13T04:42:47.789Z,51.185780
2023-01-13T04:43:47.721Z,51.185780
2023-01-13T04:44:47.659Z,51.185780
2023-01-13T04:45:48.088Z,51.185703
2023-01-13T04:46:47.644Z,51.185707
2023-01-13T04:47:47.657Z,51.185802
2023-01-13T04:48:47.640Z,51.185799
2023-01-13T04:49:47.609Z,51.185810
2023-01-13T04:50:47.641Z,51.185822
2023-01-13T04:51:47.650Z,51.185787
2023-01-13T04:52:47.608Z,51.185818
2023-01-13T04:53:47.583Z,51.185772
2023-01-13T04:54:47.587Z,51.185764
2023-01-13T04:55:47.627Z,51.185764
2023-01-13T04:56:47.588Z,51.185783
2023-01-13T04:57:47.597Z,51.185799
2023-01-13T04:58:47.596Z,51.185806
2023-01-13T04:59:47.559Z,51.185825
2023-01-13T05:00:47.573Z,51.185837
2023-01-13T05:01:47.613Z,51.185856
2023-01-13T05:02:47.544Z,51.185947
2023-01-13T05:03:47.539Z,51.185898
2023-01-13T05:04:47.604Z,51.185852
2023-01-13T05:05:47.539Z,51.185844
2023-01-13T05:06:47.552Z,51.185795
2023-01-13T05:07:47.517Z,51.185787
2023-01-13T05:08:47.483Z,51.185810
2023-01-13T05:09:47.488Z,51.185791
2023-01-13T05:10:47.491Z,51.185810
2023-01-13T05:11:47.493Z,51.185799
2023-01-13T05:12:47.485Z,51.185768
2023-01-13T05:13:47.477Z,51.185802
2023-01-13T05:14:47.465Z,51.185848
2023-01-13T05:15:47.580Z,51.185833
2023-01-13T05:16:47.443Z,51.185802
2023-01-13T05:17:47.449Z,51.185829
2023-01-13T05:18:47.449Z,51.185844
2023-01-13T05:19:47.427Z,51.185833
2023-01-13T05:20:47.453Z,51.185814
2023-01-13T05:21:47.406Z,51.185791
2023-01-13T05:22:47.433Z,51.185799
2023-01-13T05:23:47.408Z,51.185806
2023-01-13T05:24:47.395Z,51.185772
2023-01-13T05:25:47.451Z,51.185753
2023-01-13T05:26:47.388Z,51.185760
2023-01-13T05:27:47.419Z,51.185802
2023-01-13T05:28:47.392Z,51.185791
2023-01-13T05:29:47.352Z,51.185829
2023-01-13T05:30:47.490Z,51.185829
2023-01-13T05:31:47.351Z,51.185791
2023-01-13T05:32:47.357Z,51.185799
2023-01-13T05:33:47.353Z,51.185802
2023-01-13T05:34:47.345Z,51.185810
2023-01-13T05:35:47.572Z,51.185860
2023-01-13T05:36:47.336Z,51.185863
2023-01-13T05:37:47.331Z,51.185837
2023-01-13T05:38:47.320Z,51.185837
2023-01-13T05:39:47.317Z,51.185856
2023-01-13T05:40:47.319Z,51.185829
2023-01-13T05:41:47.275Z,51.185837
2023-01-13T05:42:47.273Z,51.185822
2023-01-13T05:43:47.330Z,51.185768
2023-01-13T05:44:47.293Z,51.185783
2023-01-13T05:45:47.257Z,51.185783
2023-01-13T05:46:47.281Z,51.185776
2023-01-13T05:47:47.234Z,51.185764
2023-01-13T05:48:47.276Z,51.185787
2023-01-13T05:49:47.233Z,51.185791
2023-01-13T05:50:47.219Z,51.185795
2023-01-13T05:51:47.221Z,51.185791
2023-01-13T05:52:47.208Z,51.185810
2023-01-13T05:53:47.223Z,51.185799
2023-01-13T05:54:47.219Z,51.185810
2023-01-13T05:55:47.237Z,51.185806
2023-01-13T05:56:47.193Z,51.185860
2023-01-13T05:57:47.232Z,51.185787
2023-01-13T05:58:47.302Z,51.185734
2023-01-13T05:59:47.180Z,51.185814
2023-01-13T06:00:47.200Z,51.185760
2023-01-13T06:01:47.184Z,51.185871
2023-01-13T06:02:47.162Z,51.185802
2023-01-13T06:03:47.183Z,51.185799
2023-01-13T06:04:47.190Z,51.185822
2023-01-13T06:05:47.137Z,51.185783
2023-01-13T06:06:47.141Z,51.185795
2023-01-13T06:07:47.110Z,51.185806
2023-01-13T06:08:47.148Z,51.185745
2023-01-13T06:09:47.122Z,51.185848
2023-01-13T06:10:47.122Z,51.185848
2023-01-13T06:11:47.128Z,51.185814
2023-01-13T06:12:47.128Z,51.185814
2023-01-13T06:13:47.073Z,51.185776
2023-01-13T06:14:47.112Z,51.185757
2023-01-13T06:15:47.151Z,51.185818
2023-01-13T06:16:47.073Z,51.185726
2023-01-13T06:17:47.088Z,51.185680
2023-01-13T06:18:47.289Z,51.185699
2023-01-13T06:19:47.057Z,51.185757
2023-01-13T06:20:47.111Z,51.185719
2023-01-13T06:21:47.052Z,51.185684
2023-01-13T06:22:47.050Z,51.185612
2023-01-13T06:23:47.046Z,51.185577
2023-01-13T06:24:47.027Z,51.185665
2023-01-13T06:25:47.011Z,51.185802
2023-01-13T06:26:47.033Z,51.185722
2023-01-13T06:27:46.983Z,51.185745
2023-01-13T06:28:47.022Z,51.185940
2023-01-13T06:29:46.972Z,51.185932
2023-01-13T06:30:46.978Z,51.185841
2023-01-13T06:31:47.109Z,51.185810
2023-01-13T06:32:46.998Z,51.185837
2023-01-13T06:33:46.966Z,51.185841
2023-01-13T06:34:46.995Z,51.185852
2023-01-13T06:35:46.940Z,51.185844
2023-01-13T06:36:46.972Z,51.185841
2023-01-13T06:37:46.939Z,51.185856
2023-01-13T06:38:46.929Z,51.185844
2023-01-13T06:39:46.929Z,51.185833
2023-01-13T06:40:46.949Z,51.185856
2023-01-13T06:41:46.958Z,51.185863
2023-01-13T06:42:46.923Z,51.185883
2023-01-13T06:43:46.903Z,51.185921
2023-01-13T06:44:47.049Z,51.185856
2023-01-13T06:45:46.909Z,51.185844
2023-01-13T06:46:46.946Z,51.185814
2023-01-13T06:47:46.912Z,51.185818
2023-01-13T06:48:46.992Z,51.185875
2023-01-13T06:49:46.922Z,51.185833
2023-01-13T06:50:46.887Z,51.185867
2023-01-13T06:51:46.897Z,51.185886
2023-01-13T06:52:46.858Z,51.185856
2023-01-13T06:53:46.895Z,51.185902
2023-01-13T06:54:46.880Z,51.185841
2023-01-13T06:55:46.832Z,51.185848
2023-01-13T06:56:46.901Z,51.185810
2023-01-13T06:57:46.798Z,51.185791
2023-01-13T06:58:46.814Z,51.185772
2023-01-13T06:59:46.815Z,51.185837
2023-01-13T07:00:46.875Z,51.185791
2023-01-13T07:01:46.984Z,51.185822
2023-01-13T07:02:46.896Z,51.185829
2023-01-13T07:03:46.884Z,51.185825
2023-01-13T07:04:46.895Z,51.185829
2023-01-13T07:05:46.776Z,51.185806
2023-01-13T07:06:46.786Z,51.185841
2023-01-13T07:07:46.752Z,51.185883
2023-01-13T07:08:46.747Z,51.185898
2023-01-13T07:09:46.745Z,51.185879
2023-01-13T07:10:46.749Z,51.185898
2023-01-13T07:11:46.806Z,51.185860
2023-01-13T07:12:46.753Z,51.185810
2023-01-13T07:13:46.736Z,51.185791
2023-01-13T07:14:46.754Z,51.185905
2023-01-13T07:15:46.691Z,51.185863
2023-01-13T07:16:46.802Z,51.185848
2023-01-13T07:17:46.684Z,51.185871
2023-01-13T07:18:47.002Z,51.185787
2023-01-13T07:19:46.725Z,51.185791
2023-01-13T07:20:46.783Z,51.185799
2023-01-13T07:21:46.646Z,51.185867
2023-01-13T07:22:46.685Z,51.185860
2023-01-13T07:23:46.651Z,51.185841
2023-01-13T07:24:46.631Z,51.185860
2023-01-13T07:25:46.665Z,51.185837
2023-01-13T07:26:46.652Z,51.185841
2023-01-13T07:27:46.615Z,51.185829
2023-01-13T07:28:46.639Z,51.185879
2023-01-13T07:29:46.600Z,51.185848
2023-01-13T07:30:46.619Z,51.185825
2023-01-13T07:31:49.739Z,51.185795
2023-01-13T07:32:46.615Z,51.185833
2023-01-13T07:33:46.605Z,51.185863
2023-01-13T07:34:46.587Z,51.185890
2023-01-13T07:35:46.580Z,51.185841
2023-01-13T07:36:46.610Z,51.185787
2023-01-13T07:37:46.605Z,51.185810
2023-01-13T07:38:46.543Z,51.185837
2023-01-13T07:39:46.562Z,51.185829
2023-01-13T07:40:46.538Z,51.185787
2023-01-13T07:41:46.563Z,51.185860
2023-01-13T07:42:46.531Z,51.185871
2023-01-13T07:43:46.501Z,51.185764
2023-01-13T07:44:46.532Z,51.185749
2023-01-13T07:45:46.561Z,51.185741
2023-01-13T07:46:46.513Z,51.185833
2023-01-13T07:47:46.490Z,51.185806
2023-01-13T07:48:46.472Z,51.185780
2023-01-13T07:49:46.487Z,51.185768
2023-01-13T07:50:46.502Z,51.185780
2023-01-13T07:51:46.510Z,51.185825
2023-01-13T07:52:46.460Z,51.185749
2023-01-13T07:53:46.463Z,51.185764
2023-01-13T07:54:46.450Z,51.185825
2023-01-13T07:55:46.509Z,51.185894
2023-01-13T07:56:46.436Z,51.185833
2023-01-13T07:57:46.426Z,51.185905
2023-01-13T07:58:46.422Z,51.185814
2023-01-13T07:59:46.410Z,51.185833
2023-01-13T08:00:46.477Z,51.185860
2023-01-13T08:01:46.602Z,51.185726
2023-01-13T08:02:46.434Z,51.185760
2023-01-13T08:03:46.395Z,51.185822
2023-01-13T08:04:46.386Z,51.185898
2023-01-13T08:05:46.391Z,51.185795
2023-01-13T08:06:46.375Z,51.185699
2023-01-13T08:07:46.423Z,51.185791
2023-01-13T08:08:46.353Z,51.185753
2023-01-13T08:09:46.389Z,51.185810
2023-01-13T08:10:46.378Z,51.185806
2023-01-13T08:11:46.334Z,51.185921
2023-01-13T08:12:53.798Z,51.185902
2023-01-13T08:13:47.325Z,51.185810
2023-01-13T08:14:46.309Z,51.185833
2023-01-13T08:15:46.352Z,51.185780
2023-01-13T08:16:46.418Z,51.185883
2023-01-13T08:17:46.303Z,51.185852
2023-01-13T08:18:46.311Z,51.185852
2023-01-13T08:19:46.275Z,51.185810
2023-01-13T08:20:46.292Z,51.185814
2023-01-13T08:21:46.278Z,51.185814
2023-01-13T08:22:46.280Z,51.185783
2023-01-13T08:23:46.349Z,51.185802
2023-01-13T08:24:46.323Z,51.185867
2023-01-13T08:25:46.275Z,51.185810
2023-01-13T08:26:46.306Z,51.185867
2023-01-13T08:27:46.264Z,51.185833
2023-01-13T08:28:46.277Z,51.185856
2023-01-13T08:29:46.240Z,51.185802
2023-01-13T08:30:46.317Z,51.185863
2023-01-13T08:31:46.219Z,51.185837
2023-01-13T08:32:46.211Z,51.185875
2023-01-13T08:33:46.185Z,51.185806
2023-01-13T08:34:46.196Z,51.185806
2023-01-13T08:35:46.224Z,51.185776
2023-01-13T08:36:46.179Z,51.185829
2023-01-13T08:37:46.190Z,51.185833
2023-01-13T08:38:46.191Z,51.185772
2023-01-13T08:39:46.169Z,51.185795
2023-01-13T08:40:46.200Z,51.185726
2023-01-13T08:41:46.144Z,51.185715
2023-01-13T08:42:48.502Z,51.185757
2023-01-13T08:43:46.166Z,51.185760
2023-01-13T08:44:46.152Z,51.185791
2023-01-13T08:45:46.254Z,51.185780
2023-01-13T08:46:46.125Z,51.185757
2023-01-13T08:47:46.950Z,51.185791
2023-01-13T08:48:46.096Z,51.185833
2023-01-13T08:49:46.097Z,51.185764
2023-01-13T08:50:46.101Z,51.185799
2023-01-13T08:51:46.091Z,51.185768
2023-01-13T08:52:46.088Z,51.185799
2023-01-13T08:53:46.065Z,51.185757
2023-01-13T08:54:46.092Z,51.185738
2023-01-13T08:55:46.106Z,51.185814
2023-01-13T08:56:46.130Z,51.185856
2023-01-13T08:57:46.323Z,51.185799
2023-01-13T08:58:46.037Z,51.185768
2023-01-13T08:59:46.015Z,51.185757
2023-01-13T09:00:46.044Z,51.185791
2023-01-13T09:01:46.315Z,51.185780
2023-01-13T09:02:46.039Z,51.185818
2023-01-13T09:03:46.017Z,51.185833
2023-01-13T09:04:46.087Z,51.185791
2023-01-13T09:05:45.988Z,51.185780
2023-01-13T09:06:45.987Z,51.185772
2023-01-13T09:07:45.983Z,51.185772
2023-01-13T09:08:46.014Z,51.185776
2023-01-13T09:09:45.938Z,51.185833
2023-01-13T09:10:45.943Z,51.185883
2023-01-13T09:11:45.975Z,51.185825
2023-01-13T09:12:45.947Z,51.185772
2023-01-13T09:13:45.972Z,51.185795
2023-01-13T09:14:45.985Z,51.185768
2023-01-13T09:15:46.056Z,51.185757
2023-01-13T09:16:45.919Z,51.185760
2023-01-13T09:17:45.927Z,51.185802
2023-01-13T09:18:45.923Z,51.185795
2023-01-13T09:19:45.886Z,51.185749
2023-01-13T09:20:45.914Z,51.185795
2023-01-13T09:21:45.981Z,51.185780
2023-01-13T09:22:45.888Z,51.185738
2023-01-13T09:23:45.871Z,51.185776
2023-01-13T09:24:45.905Z,51.185757
2023-01-13T09:25:45.867Z,51.185799
2023-01-13T09:26:45.965Z,51.185783
2023-01-13T09:27:45.900Z,51.185776
2023-01-13T09:28:45.846Z,51.185818
2023-01-13T09:29:45.823Z,51.185806
2023-01-13T09:30:45.855Z,51.185833
2023-01-13T09:31:45.880Z,51.185844
2023-01-13T09:32:45.862Z,51.185772
2023-01-13T09:33:45.788Z,51.185795
2023-01-13T09:34:45.776Z,51.185757
2023-01-13T09:35:45.788Z,51.185749
2023-01-13T09:36:45.774Z,51.185745
2023-01-13T09:37:45.795Z,51.185745
2023-01-13T09:38:45.792Z,51.185780
2023-01-13T09:39:45.785Z,51.185898
2023-01-13T09:40:45.795Z,51.185799
2023-01-13T09:41:45.748Z,51.185799
2023-01-13T09:42:45.762Z,51.185753
2023-01-13T09:43:45.757Z,51.185703
2023-01-13T09:44:45.724Z,51.185745
2023-01-13T09:45:45.699Z,51.185795
2023-01-13T09:46:45.771Z,51.185802
2023-01-13T09:47:45.700Z,51.185863
2023-01-13T09:48:45.692Z,51.185791
2023-01-13T09:49:45.736Z,51.185783
2023-01-13T09:50:45.683Z,51.185738
2023-01-13T09:51:45.805Z,51.185776
2023-01-13T09:52:45.748Z,51.185814
2023-01-13T09:53:45.634Z,51.185802
2023-01-13T09:54:45.682Z,51.185837
2023-01-13T09:55:45.656Z,51.186081
2023-01-13T09:56:45.627Z,51.186008
2023-01-13T09:57:45.642Z,51.185963
2023-01-13T09:58:45.659Z,51.185875
2023-01-13T09:59:45.628Z,51.185753
2023-01-13T10:00:45.630Z,51.185726
2023-01-13T10:01:45.607Z,51.185844
2023-01-13T10:02:45.600Z,51.185921
2023-01-13T10:03:45.655Z,51.185925
2023-01-13T10:04:45.655Z,51.185318
2023-01-13T10:05:45.578Z,51.185501
2023-01-13T10:06:45.579Z,51.185593
2023-01-13T10:07:45.734Z,51.185814
2023-01-13T10:08:45.564Z,51.185978
2023-01-13T10:09:45.568Z,51.186222
2023-01-13T10:10:45.549Z,51.186058
2023-01-13T10:11:45.606Z,51.186020
2023-01-13T10:12:45.533Z,51.186218
2023-01-13T10:13:45.591Z,51.186218
2023-01-13T10:14:45.508Z,51.186668
2023-01-13T10:15:45.645Z,51.186687
2023-01-13T10:16:45.505Z,51.186672
2023-01-13T10:17:45.478Z,51.186516
2023-01-13T10:18:45.490Z,51.186409
2023-01-13T10:19:45.514Z,51.186298
2023-01-13T10:20:45.491Z,51.186386
2023-01-13T10:21:45.441Z,51.186012
2023-01-13T10:22:45.466Z,51.185940
2023-01-13T10:23:45.467Z,51.185635
2023-01-13T10:24:45.443Z,51.185772
2023-01-13T10:25:45.629Z,51.185757
2023-01-13T10:26:45.450Z,51.185772
2023-01-13T10:27:45.416Z,51.185768
2023-01-13T10:28:45.463Z,51.185768
2023-01-13T10:29:45.443Z,51.185795
2023-01-13T10:30:45.411Z,51.185871
2023-01-13T10:31:45.507Z,51.185898
2023-01-13T10:32:45.400Z,51.185875
2023-01-13T10:33:45.442Z,51.185764
2023-01-13T10:34:45.386Z,51.185852
2023-01-13T10:35:45.375Z,51.185844
2023-01-13T10:36:45.358Z,51.185871
2023-01-13T10:37:45.347Z,51.185917
2023-01-13T10:38:45.354Z,51.185867
2023-01-13T10:39:45.321Z,51.185795
2023-01-13T10:40:45.358Z,51.185802
2023-01-13T10:41:45.304Z,51.185772
2023-01-13T10:42:45.320Z,51.185837
2023-01-13T10:43:45.330Z,51.185799
2023-01-13T10:44:45.297Z,51.185787
2023-01-13T10:45:45.287Z,51.185860
2023-01-13T10:46:45.350Z,51.185841
2023-01-13T10:47:45.309Z,51.185783
2023-01-13T10:48:45.267Z,51.185867
2023-01-13T10:49:45.260Z,51.185757
2023-01-13T10:50:45.261Z,51.185745
2023-01-13T10:51:45.267Z,51.185928
2023-01-13T10:52:45.243Z,51.185818
2023-01-13T10:53:45.302Z,51.185860
2023-01-13T10:54:45.228Z,51.185905
2023-01-13T10:55:45.228Z,51.185917
2023-01-13T10:56:45.218Z,51.185963
2023-01-13T10:57:45.213Z,51.185886
2023-01-13T10:58:45.183Z,51.185875
2023-01-13T10:59:45.226Z,51.185871
2023-01-13T11:00:45.192Z,51.185825
2023-01-13T11:01:45.351Z,51.185829
2023-01-13T11:02:45.237Z,51.185795
2023-01-13T11:03:45.218Z,51.185757
2023-01-13T11:04:45.302Z,51.185822
2023-01-13T11:05:45.178Z,51.185829
2023-01-13T11:06:45.142Z,51.185833
2023-01-13T11:07:45.132Z,51.185841
2023-01-13T11:08:45.342Z,51.185776
2023-01-13T11:09:45.134Z,51.185753
2023-01-13T11:10:45.136Z,51.185814
2023-01-13T11:11:45.131Z,51.185837
2023-01-13T11:12:45.102Z,51.185791
2023-01-13T11:13:45.090Z,51.185818
2023-01-13T11:14:45.111Z,51.185814
2023-01-13T11:15:45.193Z,51.185841
2023-01-13T11:16:53.095Z,51.185867
2023-01-13T11:17:46.078Z,51.185810
2023-01-13T11:18:45.073Z,51.185822
2023-01-13T11:19:45.102Z,51.185890
2023-01-13T11:20:45.058Z,51.185825
2023-01-13T11:21:45.056Z,51.185837
2023-01-13T11:22:45.058Z,51.185860
2023-01-13T11:23:45.041Z,51.185810
2023-01-13T11:24:45.042Z,51.185787